Time;durP1;ratioP1;P1;durP2;ratioP2;P2;SDS_P1;SDS_P2;PMS_P1;PMS_P2;Temp;Humidity;BMP_temperature;BMP_pressure;BME280_temperature;BME280_humidity;BME280_pressure;Samples;Min_cycle;Max_cycle;Signal;HPM_P1;HPM_P2
2022/05/30 00:00:15;;;;;;;2.15;1.52;;;;;;;14.91;51.83;100781.03;5091364;28;20055;-52
2022/05/30 00:02:41;;;;;;;2.60;1.73;;;;;;;14.90;51.94;100776.69;5088611;28;20040;-56
2022/05/30 00:05:08;;;;;;;3.00;1.60;;;;;;;14.90;51.99;100774.03;5089363;28;20028;-52
2022/05/30 00:07:35;;;;;;;4.97;1.70;;;;;;;14.89;52.10;100777.69;5093131;28;20502;-54
2022/05/30 00:10:00;;;;;;;3.30;1.40;;;;;;;14.88;52.08;100773.34;5084463;28;20078;-52
2022/05/30 00:12:26;;;;;;;2.33;1.55;;;;;;;14.86;52.17;100772.59;5094136;28;20024;-57
2022/05/30 00:14:51;;;;;;;2.95;1.58;;;;;;;14.85;52.31;100776.22;5083918;28;21068;-55
2022/05/30 00:17:17;;;;;;;2.72;1.38;;;;;;;14.84;52.42;100768.38;5084137;28;20061;-55
2022/05/30 00:19:42;;;;;;;3.58;1.63;;;;;;;14.84;52.56;100774.53;5091578;28;20506;-51
2022/05/30 00:22:11;;;;;;;2.97;1.77;;;;;;;14.84;52.47;100774.53;5084304;28;20052;-55
2022/05/30 00:24:37;;;;;;;7.38;1.60;;;;;;;14.83;52.54;100775.47;5085673;28;20039;-55
2022/05/30 00:27:03;;;;;;;4.07;1.50;;;;;;;14.82;52.51;100776.44;5090093;28;20030;-56
2022/05/30 00:29:30;;;;;;;2.78;1.40;;;;;;;14.83;52.88;100778.13;5085631;28;20042;-55
2022/05/30 00:31:56;;;;;;;2.70;1.40;;;;;;;14.82;53.01;100773.78;5089607;28;20028;-56
2022/05/30 00:34:23;;;;;;;2.38;1.92;;;;;;;14.82;53.40;100775.59;5094226;28;20096;-53
2022/05/30 00:36:48;;;;;;;7.03;2.10;;;;;;;14.82;53.48;100788.84;5081579;28;20032;-55
2022/05/30 00:39:13;;;;;;;2.72;1.55;;;;;;;14.82;53.69;100781.72;5080838;28;20032;-56
2022/05/30 00:41:39;;;;;;;2.88;1.70;;;;;;;14.80;53.78;100783.66;5088816;28;20036;-53
2022/05/30 00:44:04;;;;;;;2.05;1.60;;;;;;;14.79;53.93;100781.97;5080828;28;20040;-55
2022/05/30 00:46:30;;;;;;;3.30;1.77;;;;;;;14.75;54.31;100780.50;5087038;28;20444;-53
2022/05/30 00:49:00;;;;;;;2.65;1.50;;;;;;;14.74;54.42;100778.84;5087840;28;20040;-53
2022/05/30 00:51:33;;;;;;;3.50;1.58;;;;;;;14.72;54.56;100776.28;5087482;28;20031;-52
2022/05/30 00:54:01;;;;;;;3.65;1.90;;;;;;;14.71;54.46;100779.06;5085209;28;20028;-53
2022/05/30 00:56:31;;;;;;;3.67;1.70;;;;;;;14.69;54.54;100779.16;5086695;28;20028;-55
2022/05/30 00:58:58;;;;;;;3.58;1.73;;;;;;;14.68;54.61;100777.47;5080501;28;20039;-52
2022/05/30 01:01:24;;;;;;;2.58;1.80;;;;;;;14.67;54.55;100780.19;5087179;28;20028;-53
2022/05/30 01:06:42;;;;;;;2.55;1.80;;;;;;;14.61;54.53;100777.03;5092538;28;20106;-53
2022/05/30 01:09:11;;;;;;;2.58;1.95;;;;;;;14.60;54.85;100774.53;5086400;28;20036;-54
2022/05/30 01:11:55;;;;;;;3.30;2.60;;;;;;;14.60;54.90;100783.28;5084841;28;20024;-53
2022/05/30 01:14:22;;;;;;;4.32;2.42;;;;;;;14.59;54.71;100776.34;5086791;28;20296;-52
2022/05/30 01:16:48;;;;;;;3.17;2.50;;;;;;;14.60;54.84;100778.00;5092021;28;20035;-54
2022/05/30 01:19:25;;;;;;;3.00;1.98;;;;;;;14.59;54.72;100778.97;5085189;28;20031;-54
2022/05/30 01:22:27;;;;;;;3.35;1.60;;;;;;;14.56;54.38;100776.56;5086685;28;20077;-54
2022/05/30 01:25:14;;;;;;;2.97;1.98;;;;;;;14.53;54.04;100779.44;5082703;28;20036;-54
2022/05/30 01:27:55;;;;;;;2.58;1.90;;;;;;;14.50;53.96;100774.34;5080831;28;20073;-56
2022/05/30 01:30:20;;;;;;;3.13;1.90;;;;;;;14.45;53.94;100773.84;5085295;28;20479;-55
2022/05/30 01:32:46;;;;;;;2.95;1.60;;;;;;;14.44;54.01;100782.75;5098718;28;20047;-52
2022/05/30 01:35:12;;;;;;;2.15;1.55;;;;;;;14.44;53.91;100782.75;5087889;28;20723;-54
2022/05/30 01:37:37;;;;;;;3.10;1.80;;;;;;;14.44;53.83;100782.75;5087000;28;20032;-52
2022/05/30 01:40:04;;;;;;;3.95;1.70;;;;;;;14.43;53.92;100776.59;5083325;28;20025;-52
2022/05/30 01:42:29;;;;;;;3.65;1.70;;;;;;;14.42;53.96;100769.63;5086836;28;20055;-52
2022/05/30 01:44:55;;;;;;;3.35;1.70;;;;;;;14.40;54.01;100766.25;5084406;28;20063;-57
2022/05/30 01:47:20;;;;;;;3.05;1.60;;;;;;;14.40;53.99;100771.53;5088309;28;20093;-56
2022/05/30 01:49:46;;;;;;;1.90;1.20;;;;;;;14.39;54.10;100776.94;5090066;28;20036;-56
2022/05/30 01:52:11;;;;;;;3.15;1.52;;;;;;;14.37;53.96;100784.16;5080384;28;20031;-57
2022/05/30 01:54:37;;;;;;;3.00;1.50;;;;;;;14.35;54.10;100778.13;5083886;28;20028;-54
2022/05/30 01:57:03;;;;;;;2.20;1.60;;;;;;;14.32;54.32;100780.03;5083931;28;20046;-56
2022/05/30 01:59:28;;;;;;;2.78;1.55;;;;;;;14.31;54.29;100777.50;5083518;28;20036;-53
2022/05/30 02:01:54;;;;;;;2.30;1.50;;;;;;;14.26;54.30;100769.91;5080080;28;20031;-53
2022/05/30 02:04:19;;;;;;;3.65;1.52;;;;;;;14.25;54.30;100778.81;5085272;28;20042;-55
2022/05/30 02:06:45;;;;;;;2.67;1.60;;;;;;;14.21;54.55;100772.03;5090227;28;20452;-56
2022/05/30 02:09:11;;;;;;;2.00;1.80;;;;;;;14.18;54.83;100774.91;5085376;28;20057;-57
2022/05/30 02:11:37;;;;;;;3.95;1.85;;;;;;;14.15;54.90;100767.19;5094499;28;20422;-56
2022/05/30 02:14:03;;;;;;;5.15;1.70;;;;;;;14.11;55.11;100771.03;5083640;28;20055;-56
2022/05/30 02:19:15;;;;;;;2.92;1.92;;;;;;;14.02;55.44;100767.25;5087012;28;20043;-55
2022/05/30 02:21:41;;;;;;;5.45;2.00;;;;;;;13.99;55.84;100768.28;5086957;28;20854;-56
2022/05/30 02:24:07;;;;;;;2.60;2.13;;;;;;;13.99;56.02;100768.28;5084387;28;20093;-57
2022/05/30 02:26:35;;;;;;;4.72;2.03;;;;;;;13.98;56.34;100766.63;5088119;28;20043;-57
2022/05/30 02:29:00;;;;;;;2.28;2.00;;;;;;;14.00;56.21;100769.16;5081017;28;20028;-56
2022/05/30 02:31:27;;;;;;;2.70;1.92;;;;;;;14.01;56.50;100770.84;5086297;28;20036;-56
2022/05/30 02:36:39;;;;;;;2.60;2.20;;;;;;;14.05;56.50;100771.47;5086603;28;20097;-55
2022/05/30 02:39:10;;;;;;;4.22;2.00;;;;;;;14.07;56.56;100774.84;5084472;28;20028;-57
2022/05/30 02:41:36;;;;;;;4.80;2.00;;;;;;;14.06;56.73;100774.00;5087584;28;20541;-55
2022/05/30 02:44:03;;;;;;;3.00;1.92;;;;;;;14.08;56.64;100772.06;5084263;28;20040;-54
2022/05/30 02:46:28;;;;;;;2.38;1.58;;;;;;;14.08;56.56;100764.13;5082025;28;20053;-55
2022/05/30 02:48:54;;;;;;;3.55;1.83;;;;;;;14.10;56.67;100771.97;5081697;28;20147;-56
2022/05/30 02:51:19;;;;;;;2.92;1.83;;;;;;;14.10;56.76;100777.28;5083250;28;20052;-57
2022/05/30 02:53:45;;;;;;;3.90;1.77;;;;;;;14.11;56.44;100773.69;5088963;28;20032;-54
2022/05/30 02:56:12;;;;;;;3.90;2.45;;;;;;;14.12;56.47;100773.56;5085848;28;20035;-54
2022/05/30 02:58:38;;;;;;;4.65;2.13;;;;;;;14.12;56.54;100768.25;5091908;28;20576;-56
2022/05/30 03:01:04;;;;;;;4.40;2.28;;;;;;;14.12;56.34;100772.72;5086824;28;20660;-57
2022/05/30 03:03:30;;;;;;;3.17;1.83;;;;;;;14.11;56.43;100766.56;5085113;28;20055;-56
2022/05/30 03:05:56;;;;;;;4.13;2.20;;;;;;;14.11;56.22;100765.75;5089881;28;20097;-55
2022/05/30 03:08:21;;;;;;;2.85;2.22;;;;;;;14.12;56.18;100768.25;5084686;28;20488;-56
2022/05/30 03:10:47;;;;;;;3.22;2.22;;;;;;;14.12;56.03;100773.56;5086764;28;20024;-56
2022/05/30 03:13:13;;;;;;;3.83;2.42;;;;;;;14.10;56.04;100769.34;5084634;28;20039;-57
2022/05/30 03:15:38;;;;;;;4.45;2.63;;;;;;;14.08;55.95;100779.19;5083483;28;20115;-57
2022/05/30 03:18:05;;;;;;;42.35;5.30;;;;;;;14.05;56.22;100779.41;5092181;28;20667;-57
2022/05/30 03:20:31;;;;;;;113.68;12.85;;;;;;;14.03;56.19;100785.63;5088693;28;20031;-57
2022/05/30 03:22:56;;;;;;;3.72;2.38;;;;;;;14.05;56.27;100792.63;5081965;28;20039;-57
2022/05/30 03:25:22;;;;;;;4.90;2.47;;;;;;;14.03;56.44;100790.94;5090026;28;20032;-57
2022/05/30 03:27:48;;;;;;;3.08;2.35;;;;;;;14.06;56.25;100789.03;5084739;28;20464;-57
2022/05/30 03:30:14;;;;;;;4.38;2.60;;;;;;;14.06;56.32;100797.81;5082610;28;20910;-55
2022/05/30 03:32:41;;;;;;;3.08;2.38;;;;;;;14.05;56.37;100797.91;5078261;28;20062;-55
2022/05/30 03:35:07;;;;;;;3.75;2.30;;;;;;;14.05;56.43;100797.91;5089864;28;20503;-56
2022/05/30 03:37:36;;;;;;;3.50;2.03;;;;;;;14.05;56.37;100803.22;5085625;28;20036;-53
2022/05/30 03:40:04;;;;;;;7.28;2.40;;;;;;;14.03;56.45;100804.16;5078986;28;20035;-55
2022/05/30 03:42:29;;;;;;;3.60;2.33;;;;;;;14.02;56.33;100799.81;5083543;28;21652;-54
2022/05/30 03:44:54;;;;;;;3.85;2.20;;;;;;;14.01;56.36;100800.78;5085075;28;20585;-56
2022/05/30 03:47:20;;;;;;;4.28;2.20;;;;;;;14.00;56.47;100804.38;5083190;28;20036;-57
2022/05/30 03:49:45;;;;;;;5.10;2.80;;;;;;;14.01;56.72;100805.22;5095896;28;20039;-55
2022/05/30 03:52:11;;;;;;;4.70;2.40;;;;;;;14.00;56.63;100807.00;5088823;28;20020;-57
2022/05/30 03:54:36;;;;;;;3.60;2.35;;;;;;;14.01;56.93;100808.72;5091914;28;20403;-54
2022/05/30 03:57:03;;;;;;;330.25;35.95;;;;;;;14.01;56.74;100806.06;5086482;28;20044;-54
2022/05/30 03:59:28;;;;;;;93.65;14.52;;;;;;;14.01;57.03;100808.72;5095312;28;20164;-54
2022/05/30 04:01:54;;;;;;;3.83;2.80;;;;;;;14.00;57.12;100799.09;5092537;28;20042;-55
2022/05/30 04:04:19;;;;;;;3.83;2.53;;;;;;;14.00;57.11;100801.72;5086858;28;20024;-56
2022/05/30 04:06:45;;;;;;;4.72;2.72;;;;;;;14.00;57.29;100806.19;5093822;28;20368;-56
2022/05/30 04:09:11;;;;;;;4.95;3.10;;;;;;;13.99;57.33;100807.13;5087633;28;20036;-56
2022/05/30 04:11:36;;;;;;;3.75;2.65;;;;;;;14.00;57.49;100814.97;5086107;28;20036;-55
2022/05/30 04:14:02;;;;;;;5.90;2.65;;;;;;;14.00;57.34;100811.47;5081480;28;20024;-52
2022/05/30 04:16:27;;;;;;;3.58;2.53;;;;;;;13.98;57.80;100813.38;5086004;28;20035;-54
2022/05/30 04:18:53;;;;;;;3.38;2.63;;;;;;;13.97;57.95;100815.19;5089139;28;20032;-55
2022/05/30 04:21:19;;;;;;;6.82;2.90;;;;;;;13.98;58.06;100813.38;5083291;28;20431;-55
2022/05/30 04:23:44;;;;;;;3.13;2.55;;;;;;;13.99;57.85;100810.63;5077235;28;20117;-53
2022/05/30 04:26:13;;;;;;;5.35;2.92;;;;;;;14.01;58.08;100818.47;5088505;28;20077;-55
2022/05/30 04:28:39;;;;;;;9.05;3.25;;;;;;;14.02;58.21;100815.69;5079055;28;20056;-54
2022/05/30 04:31:12;;;;;;;5.80;3.70;;;;;;;14.05;58.08;100819.09;5090887;28;20100;-56
2022/05/30 04:33:41;;;;;;;8.82;2.80;;;;;;;14.07;58.30;100822.47;5081860;28;20024;-53
2022/05/30 04:36:08;;;;;;;5.13;2.87;;;;;;;14.09;58.14;100815.28;5086259;28;20426;-56
2022/05/30 04:38:34;;;;;;;3.08;2.47;;;;;;;14.08;58.28;100817.06;5085280;28;20399;-54
2022/05/30 04:41:00;;;;;;;6.50;3.30;;;;;;;14.11;58.45;100805.44;5087014;28;20038;-55
2022/05/30 04:43:25;;;;;;;6.18;2.88;;;;;;;14.13;58.59;100816.75;5085455;28;20082;-56
2022/05/30 04:46:12;;;;;;;6.10;3.70;;;;;;;14.14;58.41;100813.16;5095473;28;20035;-52
2022/05/30 04:48:39;;;;;;;5.82;3.13;;;;;;;14.15;58.21;100806.88;5086333;28;20040;-54
2022/05/30 04:51:04;;;;;;;3.65;3.08;;;;;;;14.14;58.41;100818.44;5087189;28;20036;-51
2022/05/30 04:53:31;;;;;;;3.45;2.63;;;;;;;14.12;58.50;100809.75;5085828;28;20032;-53
2022/05/30 04:55:57;;;;;;;5.60;2.45;;;;;;;14.13;58.65;100816.75;5085819;28;20111;-53
2022/05/30 04:58:23;;;;;;;4.03;2.58;;;;;;;14.13;58.67;100811.47;5077362;28;20165;-54
2022/05/30 05:00:48;;;;;;;7.18;4.40;;;;;;;14.14;58.89;100818.44;5076293;28;20039;-52
2022/05/30 05:03:13;;;;;;;3.20;2.80;;;;;;;14.17;58.85;100818.19;5099274;28;20104;-52
2022/05/30 05:05:39;;;;;;;3.38;2.80;;;;;;;14.21;58.90;100818.84;5095503;28;20036;-54
2022/05/30 05:08:14;;;;;;;5.72;3.72;;;;;;;14.26;58.97;100820.19;5088912;28;20038;-55
2022/05/30 05:10:44;;;;;;;4.70;3.17;;;;;;;14.30;58.85;100824.28;5088206;28;20107;-53
2022/05/30 05:13:09;;;;;;;;;;;;;;;14.28;58.66;100823.59;5090708;28;20025;-57
2022/05/30 05:15:35;;;;;;;2.88;2.42;;;;;;;14.27;58.72;100819.25;5096011;28;20013;-52
2022/05/30 05:18:00;;;;;;;6.82;2.78;;;;;;;14.30;58.95;100812.88;5090903;28;20035;-55
2022/05/30 05:20:26;;;;;;;3.58;2.75;;;;;;;14.35;59.15;100817.81;5089575;28;20097;-55
2022/05/30 05:22:52;;;;;;;4.03;3.10;;;;;;;14.37;58.95;100815.91;5089022;28;20032;-51
2022/05/30 05:25:17;;;;;;;5.30;3.00;;;;;;;14.38;59.20;100820.25;5097950;28;20032;-54
2022/05/30 05:27:44;;;;;;;4.28;2.58;;;;;;;14.39;59.39;100812.19;5084613;28;20031;-54
2022/05/30 05:30:10;;;;;;;4.03;2.92;;;;;;;14.42;59.56;100808.50;5094362;28;20031;-56
2022/05/30 05:32:36;;;;;;;4.70;2.92;;;;;;;14.48;59.82;100815.97;5095006;28;20036;-52
2022/05/30 05:35:02;;;;;;;5.28;2.67;;;;;;;14.52;59.57;100812.16;5094791;28;20418;-54
2022/05/30 05:37:28;;;;;;;3.65;2.63;;;;;;;14.55;59.39;100813.72;5085790;28;20042;-56
2022/05/30 05:39:54;;;;;;;3.67;2.30;;;;;;;14.47;59.43;100815.16;5093000;28;20029;-53
2022/05/30 05:42:19;;;;;;;4.50;2.63;;;;;;;14.39;59.44;100820.13;5089210;28;20395;-53
2022/05/30 05:44:44;;;;;;;4.57;2.65;;;;;;;14.38;59.46;100828.19;5088857;28;20089;-54
2022/05/30 05:47:10;;;;;;;7.13;2.38;;;;;;;14.34;59.71;100824.94;5088899;28;20031;-54
2022/05/30 05:49:36;;;;;;;3.53;2.60;;;;;;;14.32;59.62;100829.50;5090371;28;20106;-53
2022/05/30 05:52:02;;;;;;;4.20;2.53;;;;;;;14.27;59.87;100829.84;5088634;28;20020;-55
2022/05/30 05:54:31;;;;;;;3.80;2.90;;;;;;;14.25;59.83;100829.09;5090045;28;20078;-57
2022/05/30 05:56:57;;;;;;;5.13;2.47;;;;;;;14.26;59.96;100838.72;5093457;28;20035;-52
2022/05/30 05:59:22;;;;;;;5.90;2.60;;;;;;;14.27;59.72;100829.84;5092274;28;20024;-52
2022/05/30 06:01:48;;;;;;;4.13;2.22;;;;;;;14.27;59.66;100839.56;5083762;28;20061;-52
2022/05/30 06:04:13;;;;;;;6.13;2.80;;;;;;;14.26;59.63;100837.88;5089516;28;20502;-53
2022/05/30 06:06:39;;;;;;;7.28;2.80;;;;;;;14.27;59.78;100835.13;5086495;28;20041;-56
2022/05/30 06:09:06;;;;;;;6.68;2.70;;;;;;;14.29;59.71;100833.19;5087414;28;20523;-55
2022/05/30 06:11:32;;;;;;;5.40;2.50;;;;;;;14.31;59.76;100841.03;5095058;28;20030;-55
2022/05/30 06:13:58;;;;;;;232.88;28.15;;;;;;;14.33;59.83;100845.25;5098685;28;20032;-55
2022/05/30 06:16:25;;;;;;;8.13;2.50;;;;;;;14.34;59.76;100840.81;5089116;28;20028;-52
2022/05/30 06:18:52;;;;;;;4.50;2.55;;;;;;;14.37;59.78;100845.03;5088542;28;20023;-54
2022/05/30 06:21:19;;;;;;;4.90;2.67;;;;;;;14.42;59.88;100840.28;5084219;28;20028;-52
2022/05/30 06:23:45;;;;;;;10.43;3.63;;;;;;;14.46;59.84;100844.34;5095435;28;20051;-54
2022/05/30 06:26:11;;;;;;;11.88;5.15;;;;;;;14.54;59.93;100836.72;5092132;28;20036;-56
2022/05/30 06:28:38;;;;;;;5.30;2.47;;;;;;;14.59;59.84;100842.53;5085574;28;20032;-53
2022/05/30 06:31:13;;;;;;;4.63;2.97;;;;;;;14.64;59.56;100847.50;5094270;28;20020;-54
2022/05/30 06:33:39;;;;;;;5.68;2.80;;;;;;;14.69;59.21;100844.53;5087067;28;20043;-53
2022/05/30 06:36:07;;;;;;;4.70;2.83;;;;;;;14.70;59.43;100840.94;5087220;28;20035;-53
2022/05/30 06:38:32;;;;;;;4.13;2.30;;;;;;;14.73;59.32;100848.66;5089920;28;20066;-52
2022/05/30 06:41:15;;;;;;;4.53;2.20;;;;;;;14.78;59.25;100849.13;5082254;28;20062;-52
2022/05/30 06:43:42;;;;;;;4.00;2.10;;;;;;;14.73;59.12;100851.31;5086172;28;20035;-55
2022/05/30 06:46:08;;;;;;;5.25;2.30;;;;;;;14.70;59.15;100854.16;5096390;28;20032;-54
2022/05/30 06:48:34;;;;;;;2.95;2.47;;;;;;;14.70;58.92;100856.81;5094289;28;20122;-52
2022/05/30 06:51:09;;;;;;;5.00;2.58;;;;;;;14.68;59.03;100853.44;5088922;28;20151;-54
2022/05/30 06:53:34;;;;;;;3.95;2.10;;;;;;;14.63;59.00;100859.03;5092139;28;20085;-54
2022/05/30 06:56:00;;;;;;;4.90;2.22;;;;;;;14.64;59.13;100850.13;5090287;28;20028;-53
2022/05/30 06:58:27;;;;;;;3.83;2.20;;;;;;;14.65;58.97;100859.78;5093411;28;20032;-55
2022/05/30 07:00:58;;;;;;;371.10;48.60;;;;;;;14.69;59.12;100855.13;5087606;28;20028;-56
2022/05/30 07:03:23;;;;;;;4.93;2.80;;;;;;;14.85;58.84;100863.63;5085092;28;20744;-54
2022/05/30 07:05:49;;;;;;;5.43;2.08;;;;;;;14.94;58.75;100870.88;5088836;28;20055;-51
2022/05/30 07:08:15;;;;;;;4.60;2.30;;;;;;;15.04;58.45;100867.56;5095118;28;20541;-55
2022/05/30 07:10:41;;;;;;;8.68;3.00;;;;;;;15.13;58.14;100869.53;5087574;28;20032;-54
2022/05/30 07:13:06;;;;;;;4.38;2.65;;;;;;;15.20;58.15;100862.78;5089430;28;20016;-54
2022/05/30 07:15:36;;;;;;;5.18;2.45;;;;;;;15.27;57.77;100867.63;5088235;28;20036;-55
2022/05/30 07:18:12;;;;;;;4.10;2.65;;;;;;;15.32;57.40;100868.13;5088693;28;20028;-51
2022/05/30 07:20:38;;;;;;;5.68;2.67;;;;;;;15.35;57.31;100865.25;5087781;28;20040;-54
2022/05/30 07:23:04;;;;;;;4.38;2.50;;;;;;;15.38;57.14;100863.22;5086425;28;20400;-52
2022/05/30 07:25:30;;;;;;;3.75;2.40;;;;;;;15.43;57.07;100860.19;5088859;28;20050;-52
2022/05/30 07:27:55;;;;;;;3.53;2.33;;;;;;;15.48;57.03;100852.75;5090947;28;20044;-53
2022/05/30 07:30:21;;;;;;;4.90;2.35;;;;;;;15.54;56.85;100857.56;5085549;28;20024;-52
2022/05/30 07:32:46;;;;;;;6.00;2.30;;;;;;;15.60;56.72;100855.41;5092260;28;20391;-54
2022/05/30 07:35:11;;;;;;;3.77;2.50;;;;;;;15.72;55.51;100857.09;5088633;28;20773;-52
2022/05/30 07:37:37;;;;;;;5.72;2.38;;;;;;;15.73;55.68;100856.16;5093050;28;20047;-53
2022/05/30 07:40:05;;;;;;;3.83;2.03;;;;;;;15.80;55.54;100849.41;5088802;28;20506;-54
2022/05/30 07:42:30;;;;;;;7.15;2.45;;;;;;;15.84;55.37;100848.19;5085046;28;20040;-55
2022/05/30 07:44:55;;;;;;;4.15;2.17;;;;;;;15.92;55.50;100850.25;5095571;28;20092;-55
2022/05/30 07:47:22;;;;;;;5.18;2.88;;;;;;;16.02;55.26;100855.69;5093209;28;20032;-53
2022/05/30 07:49:47;;;;;;;6.68;2.30;;;;;;;16.12;54.99;100850.50;5091713;28;20031;-52
2022/05/30 07:52:13;;;;;;;4.30;2.05;;;;;;;16.11;54.57;100854.13;5094379;28;20020;-53
2022/05/30 07:54:38;;;;;;;4.13;1.77;;;;;;;16.06;54.38;100857.16;5090831;27;20506;-55
2022/05/30 07:57:05;;;;;;;128.75;13.25;;;;;;;15.99;54.33;100862.09;5095743;28;20075;-51
2022/05/30 07:59:31;;;;;;;5.10;1.67;;;;;;;15.93;54.43;100856.44;5092368;28;20039;-52
2022/05/30 08:01:58;;;;;;;3.72;1.70;;;;;;;15.89;54.42;100858.47;5091122;28;20024;-55
2022/05/30 08:04:24;;;;;;;3.28;1.65;;;;;;;15.85;54.35;100865.00;5087913;28;20098;-55
2022/05/30 08:06:51;;;;;;;5.80;1.77;;;;;;;15.74;54.80;100863.13;5093170;28;20046;-53
2022/05/30 08:09:17;;;;;;;4.38;1.90;;;;;;;15.66;54.88;100858.44;5090047;28;20036;-54
2022/05/30 08:11:43;;;;;;;2.83;1.60;;;;;;;15.59;54.51;100859.84;5088745;28;20051;-54
2022/05/30 08:14:08;;;;;;;3.53;1.73;;;;;;;15.55;54.48;100859.25;5083996;28;20500;-52
2022/05/30 08:16:37;;;;;;;3.22;1.95;;;;;;;15.54;54.46;100870.81;5091583;28;20036;-52
2022/05/30 08:19:07;;;;;;;5.00;1.77;;;;;;;15.56;54.41;100860.13;5088407;28;20032;-52
2022/05/30 08:21:33;;;;;;;4.75;1.45;;;;;;;15.52;54.51;100864.78;5089952;28;20459;-52
2022/05/30 08:23:59;;;;;;;6.90;1.55;;;;;;;15.52;54.31;100858.66;5089709;28;20028;-51
2022/05/30 08:26:24;;;;;;;2.78;1.40;;;;;;;15.45;54.07;100866.22;5085159;28;20050;-51
2022/05/30 08:28:50;;;;;;;3.50;1.42;;;;;;;15.40;53.81;100871.03;5091270;28;20483;-52
2022/05/30 08:31:16;;;;;;;3.08;1.67;;;;;;;15.37;53.76;100865.97;5090931;28;20023;-56
2022/05/30 08:33:42;;;;;;;2.50;1.40;;;;;;;15.35;53.77;100876.69;5090465;28;20042;-52
2022/05/30 08:36:11;;;;;;;3.65;1.30;;;;;;;15.32;53.67;100874.28;5092097;28;20028;-53
2022/05/30 08:38:37;;;;;;;3.65;1.40;;;;;;;15.33;53.67;100873.31;5088386;28;20036;-52
2022/05/30 08:43:52;;;;;;;2.72;1.95;;;;;;;15.46;53.46;100875.88;5101586;28;20433;-52
2022/05/30 08:46:17;;;;;;;3.35;1.30;;;;;;;15.45;53.30;100876.84;5094948;28;20032;-54
2022/05/30 08:49:01;;;;;;;6.40;1.38;;;;;;;15.43;53.02;100865.50;5089715;28;20039;-53
2022/05/30 08:51:33;;;;;;;3.92;1.40;;;;;;;15.48;52.40;100878.41;5084531;28;20028;-54
2022/05/30 08:54:10;;;;;;;4.53;1.30;;;;;;;15.49;52.02;100867.69;5096303;28;20153;-51
2022/05/30 08:56:39;;;;;;;5.18;1.50;;;;;;;15.52;51.67;100875.41;5093009;28;20078;-53
2022/05/30 08:59:40;;;;;;;1.30;1.00;;;;;;;15.59;51.70;100881.06;5094874;28;20039;-51
2022/05/30 09:02:17;;;;;;;4.35;1.40;;;;;;;15.64;51.80;100880.75;5070905;28;20035;-52
2022/05/30 09:05:08;;;;;;;2.50;1.58;;;;;;;15.70;51.55;100883.75;5083235;28;20024;-51
2022/05/30 09:07:49;;;;;;;3.50;1.65;;;;;;;15.76;50.99;100890.41;5071308;28;20331;-55
2022/05/30 09:10:27;;;;;;;4.85;1.30;;;;;;;15.78;50.34;100885.81;5087017;28;20024;-52
2022/05/30 09:13:17;;;;;;;2.97;1.50;;;;;;;15.88;50.45;100887.78;5093687;28;20486;-53
2022/05/30 09:15:49;;;;;;;6.03;1.70;;;;;;;15.99;50.31;100882.47;5096500;28;20059;-51
2022/05/30 09:18:39;;;;;;;4.10;1.50;;;;;;;16.08;49.82;100878.25;5091059;28;20118;-52
2022/05/30 09:21:05;;;;;;;5.05;1.50;;;;;;;16.11;50.19;100885.97;5091087;28;20586;-52
2022/05/30 09:23:32;;;;;;;3.60;1.52;;;;;;;16.17;49.83;100882.84;5096422;28;20081;-52
2022/05/30 09:26:00;;;;;;;5.50;1.52;;;;;;;16.20;49.72;100884.41;5091566;28;20032;-52
2022/05/30 09:28:32;;;;;;;6.68;1.55;;;;;;;16.22;49.57;100875.34;5085616;28;20606;-55
2022/05/30 09:31:21;;;;;;;3.70;2.00;;;;;;;16.24;49.01;100872.59;5096380;28;20028;-51
2022/05/30 09:33:50;;;;;;;5.22;1.70;;;;;;;16.24;48.49;100876.06;5087152;28;20028;-55
2022/05/30 09:36:19;;;;;;;3.90;1.27;;;;;;;16.27;48.18;100878.47;5091356;28;20555;-55
2022/05/30 09:38:49;;;;;;;4.57;1.77;;;;;;;16.25;47.73;100875.09;5084682;28;20122;-53
2022/05/30 09:41:27;;;;;;;3.65;1.40;;;;;;;16.26;47.47;100873.31;5091298;28;20461;-54
2022/05/30 09:44:06;;;;;;;2.95;1.13;;;;;;;16.31;47.15;100876.41;5095272;28;20055;-55
2022/05/30 09:46:38;;;;;;;5.80;1.63;;;;;;;16.35;46.98;100872.56;5091995;28;20077;-51
2022/05/30 09:49:13;;;;;;;3.55;1.17;;;;;;;16.40;47.08;100859.78;5090624;28;20032;-55
2022/05/30 09:51:48;;;;;;;7.18;1.80;;;;;;;16.46;47.10;100864.56;5086105;28;20027;-56
2022/05/30 09:54:23;;;;;;;5.05;1.20;;;;;;;16.50;47.12;100875.78;5090046;28;20032;-52
2022/05/30 09:56:51;;;;;;;4.28;1.20;;;;;;;16.46;46.67;100869.88;5088324;28;20085;-55
2022/05/30 09:59:35;;;;;;;3.08;1.20;;;;;;;16.46;46.42;100866.41;5090791;28;20170;-52
2022/05/30 10:02:03;;;;;;;5.78;1.40;;;;;;;16.50;46.53;100864.31;5091232;28;20038;-56
2022/05/30 10:04:34;;;;;;;2.92;1.50;;;;;;;16.54;46.37;100871.09;5088055;28;20023;-56
2022/05/30 10:07:05;;;;;;;;;;;;;;;16.57;46.38;100866.34;5085711;28;20043;-55
2022/05/30 10:09:33;;;;;;;270.00;47.00;;;;;;;16.61;46.81;100869.59;5092782;28;19915;-55
2022/05/30 10:11:59;;;;;;;3.55;1.30;;;;;;;16.66;45.76;100880.72;5080151;28;20480;-53
2022/05/30 10:14:28;;;;;;;5.53;1.40;;;;;;;16.64;45.25;100879.97;5089622;28;20043;-56
2022/05/30 10:17:10;;;;;;;4.00;1.35;;;;;;;16.57;45.21;100874.31;5084014;28;20561;-54
2022/05/30 10:19:40;;;;;;;3.60;1.25;;;;;;;16.56;44.74;100864.66;5090100;28;20046;-53
2022/05/30 10:28:17;;;;;;;2.63;1.10;;;;;;;16.65;43.67;100857.75;5085974;28;20054;-55
2022/05/30 10:30:44;;;;;;;3.47;1.20;;;;;;;16.68;43.78;100861.97;5088914;28;20073;-52
2022/05/30 10:33:09;;;;;;;2.65;1.20;;;;;;;16.73;44.01;100855.31;5094635;28;20530;-53
2022/05/30 10:35:55;;;;;;;4.18;1.30;;;;;;;16.80;44.04;100865.44;5091834;28;20024;-55
2022/05/30 10:38:47;;;;;;;6.18;1.20;;;;;;;16.83;43.90;100859.88;5090181;28;20024;-55
2022/05/30 10:41:31;;;;;;;2.15;1.27;;;;;;;16.80;43.53;100871.59;5078042;28;20040;-56
2022/05/30 10:44:21;;;;;;;3.67;1.23;;;;;;;16.83;43.52;100875.81;5092631;28;20022;-55
2022/05/30 10:47:15;;;;;;;1.30;0.85;;;;;;;16.86;43.31;100872.94;5088807;28;20039;-53
2022/05/30 10:50:06;;;;;;;5.70;1.13;;;;;;;16.86;42.69;100880.91;5089852;28;20050;-53
2022/05/30 10:53:05;;;;;;;2.78;1.10;;;;;;;16.85;43.00;100868.56;5084374;28;20024;-56
2022/05/30 10:55:40;;;;;;;5.03;1.90;;;;;;;16.85;42.58;100871.22;5092206;28;20103;-56
2022/05/30 10:58:19;;;;;;;1.65;1.00;;;;;;;16.92;42.54;100880.38;5082545;28;20048;-53
2022/05/30 11:00:51;;;;;;;2.73;0.97;;;;;;;16.97;42.09;100883.53;5088982;28;20020;-55
2022/05/30 11:03:26;;;;;;;3.35;1.20;;;;;;;17.02;42.08;100880.50;5096146;28;20377;-56
2022/05/30 11:05:59;;;;;;;5.53;1.30;;;;;;;17.02;42.16;100876.00;5094049;28;20028;-55
2022/05/30 11:08:43;;;;;;;2.65;1.10;;;;;;;17.12;42.40;100881.41;5096101;28;20026;-52
2022/05/30 11:11:21;;;;;;;3.78;1.20;;;;;;;17.22;42.05;100881.47;5101522;28;20447;-53
2022/05/30 11:13:55;;;;;;;2.90;1.00;;;;;;;17.17;42.26;100896.97;5097997;28;20028;-54
2022/05/30 11:16:35;;;;;;;2.97;1.13;;;;;;;17.14;42.30;100883.94;5095720;28;20094;-56
2022/05/30 11:19:09;;;;;;;5.47;1.30;;;;;;;17.11;42.22;100886.84;5100691;28;20027;-53
2022/05/30 11:21:42;;;;;;;3.95;1.10;;;;;;;17.11;42.12;100881.53;5097525;28;20026;-53
2022/05/30 11:24:08;;;;;;;4.88;1.20;;;;;;;17.17;42.25;100891.66;5091531;28;20032;-55
2022/05/30 11:26:55;;;;;;;1.90;1.05;;;;;;;17.23;41.46;100887.66;5090560;28;20093;-55
2022/05/30 11:29:29;;;;;;;2.45;0.90;;;;;;;17.22;41.51;100897.44;5102035;28;20024;-54
2022/05/30 11:32:03;;;;;;;1.88;0.80;;;;;;;17.21;40.83;100893.94;5089714;28;20028;-57
2022/05/30 11:34:44;;;;;;;2.60;0.88;;;;;;;17.20;40.14;100888.72;5092567;28;20078;-57
2022/05/30 11:37:09;;;;;;;4.70;0.88;;;;;;;17.21;40.00;100887.75;5090179;28;20058;-57
2022/05/30 11:39:48;;;;;;;1.33;0.95;;;;;;;17.25;40.01;100886.53;5091050;28;20056;-57
2022/05/30 11:42:38;;;;;;;1.85;0.88;;;;;;;17.29;40.15;100890.66;5093488;28;20472;-59
2022/05/30 11:45:21;;;;;;;2.78;0.95;;;;;;;17.40;40.34;100888.88;5092806;28;20020;-56
2022/05/30 11:47:49;;;;;;;3.08;0.90;;;;;;;17.50;40.40;100890.66;5092513;28;20368;-54
2022/05/30 11:50:33;;;;;;;1.75;0.98;;;;;;;17.58;40.53;100894.44;5094085;28;20038;-56